sensor_id;sensor_type;location;lat;lon;timestamp;pressure;altitude;pressure_sealevel;temperature;humidity
41830;BME280;38614;43.472;23.936;2022-07-12T00:02:26;100471.47;;;14.91;100.00
41830;BME280;38614;43.472;23.936;2022-07-12T00:05:14;100484.50;;;14.87;100.00
41830;BME280;38614;43.472;23.936;2022-07-12T00:08:02;100469.06;;;14.90;100.00
41830;BME280;38614;43.472;23.936;2022-07-12T00:10:50;100477.75;;;14.88;100.00
41830;BME280;38614;43.472;23.936;2022-07-12T00:13:38;100487.75;;;14.89;100.00
41830;BME280;38614;43.472;23.936;2022-07-12T00:16:25;100479.31;;;14.82;100.00
41830;BME280;38614;43.472;23.936;2022-07-12T00:19:13;100418.66;;;14.31;100.00
41830;BME280;38614;43.472;23.936;2022-07-12T00:22:01;100467.66;;;14.73;100.00
41830;BME280;38614;43.472;23.936;2022-07-12T00:24:50;100471.28;;;14.77;100.00
41830;BME280;38614;43.472;23.936;2022-07-12T00:27:37;100481.22;;;14.78;100.00
41830;BME280;38614;43.472;23.936;2022-07-12T00:30:25;100479.13;;;14.68;100.00
41830;BME280;38614;43.472;23.936;2022-07-12T00:33:13;100470.94;;;14.48;100.00
41830;BME280;38614;43.472;23.936;2022-07-12T00:36:01;100464.50;;;14.44;100.00
41830;BME280;38614;43.472;23.936;2022-07-12T00:38:49;100457.44;;;14.50;100.00
41830;BME280;38614;43.472;23.936;2022-07-12T00:41:36;100397.22;;;14.02;100.00
41830;BME280;38614;43.472;23.936;2022-07-12T00:44:24;100436.56;;;14.34;100.00
41830;BME280;38614;43.472;23.936;2022-07-12T00:47:37;100474.22;;;14.58;100.00
41830;BME280;38614;43.472;23.936;2022-07-12T00:50:27;100437.69;;;14.29;100.00
41830;BME280;38614;43.472;23.936;2022-07-12T00:53:15;100442.56;;;14.39;100.00
41830;BME280;38614;43.472;23.936;2022-07-12T00:56:05;100460.84;;;14.40;100.00
41830;BME280;38614;43.472;23.936;2022-07-12T00:58:53;100373.66;;;13.62;100.00
41830;BME280;38614;43.472;23.936;2022-07-12T01:01:41;100465.88;;;14.27;100.00
41830;BME280;38614;43.472;23.936;2022-07-12T01:04:29;100457.38;;;14.17;100.00
41830;BME280;38614;43.472;23.936;2022-07-12T01:07:17;100451.59;;;14.03;100.00
41830;BME280;38614;43.472;23.936;2022-07-12T01:10:06;100474.16;;;14.24;100.00
41830;BME280;38614;43.472;23.936;2022-07-12T01:12:57;100465.72;;;14.17;100.00
41830;BME280;38614;43.472;23.936;2022-07-12T01:15:47;100463.22;;;14.08;100.00
41830;BME280;38614;43.472;23.936;2022-07-12T01:18:36;100455.16;;;14.00;100.00
41830;BME280;38614;43.472;23.936;2022-07-12T01:21:24;100463.91;;;14.02;100.00
41830;BME280;38614;43.472;23.936;2022-07-12T01:24:14;100471.94;;;14.07;100.00
41830;BME280;38614;43.472;23.936;2022-07-12T01:27:03;100469.50;;;14.05;100.00
41830;BME280;38614;43.472;23.936;2022-07-12T01:29:51;100465.91;;;14.05;100.00
41830;BME280;38614;43.472;23.936;2022-07-12T01:32:38;100457.69;;;13.85;100.00
41830;BME280;38614;43.472;23.936;2022-07-12T01:35:27;100473.91;;;14.06;100.00
41830;BME280;38614;43.472;23.936;2022-07-12T01:38:15;100478.22;;;14.04;100.00
41830;BME280;38614;43.472;23.936;2022-07-12T01:41:04;100484.94;;;14.03;100.00
41830;BME280;38614;43.472;23.936;2022-07-12T01:43:52;100460.28;;;13.97;100.00
41830;BME280;38614;43.472;23.936;2022-07-12T01:46:40;100493.66;;;14.01;100.00
41830;BME280;38614;43.472;23.936;2022-07-12T01:49:28;100478.56;;;13.98;100.00
41830;BME280;38614;43.472;23.936;2022-07-12T01:52:16;100492.06;;;14.00;100.00
41830;BME280;38614;43.472;23.936;2022-07-12T01:55:04;100457.28;;;13.83;100.00
41830;BME280;38614;43.472;23.936;2022-07-12T01:57:53;100479.28;;;13.95;100.00
41830;BME280;38614;43.472;23.936;2022-07-12T02:00:42;100472.50;;;13.93;100.00
41830;BME280;38614;43.472;23.936;2022-07-12T02:03:29;100473.94;;;13.83;100.00
41830;BME280;38614;43.472;23.936;2022-07-12T02:06:17;100489.94;;;13.90;100.00
41830;BME280;38614;43.472;23.936;2022-07-12T02:09:05;100477.84;;;13.79;100.00
41830;BME280;38614;43.472;23.936;2022-07-12T02:11:53;100483.56;;;13.89;100.00
41830;BME280;38614;43.472;23.936;2022-07-12T02:14:41;100488.22;;;13.82;100.00
41830;BME280;38614;43.472;23.936;2022-07-12T02:17:29;100437.50;;;13.39;100.00
41830;BME280;38614;43.472;23.936;2022-07-12T02:20:16;100493.16;;;13.69;100.00
41830;BME280;38614;43.472;23.936;2022-07-12T02:23:04;100485.19;;;13.67;100.00
41830;BME280;38614;43.472;23.936;2022-07-12T02:25:52;100491.63;;;13.72;100.00
41830;BME280;38614;43.472;23.936;2022-07-12T02:28:39;100484.34;;;13.63;100.00
41830;BME280;38614;43.472;23.936;2022-07-12T02:31:27;100492.84;;;13.74;100.00
41830;BME280;38614;43.472;23.936;2022-07-12T02:34:15;100496.25;;;13.64;100.00
41830;BME280;38614;43.472;23.936;2022-07-12T02:37:06;100427.56;;;13.15;100.00
41830;BME280;38614;43.472;23.936;2022-07-12T02:39:55;100480.88;;;13.47;100.00
41830;BME280;38614;43.472;23.936;2022-07-12T02:43:02;100482.00;;;13.43;100.00
41830;BME280;38614;43.472;23.936;2022-07-12T02:45:52;100486.50;;;13.51;100.00
41830;BME280;38614;43.472;23.936;2022-07-12T02:48:41;100476.25;;;13.55;100.00
41830;BME280;38614;43.472;23.936;2022-07-12T02:51:29;100482.69;;;13.59;100.00
41830;BME280;38614;43.472;23.936;2022-07-12T02:54:16;100477.72;;;13.49;100.00
41830;BME280;38614;43.472;23.936;2022-07-12T02:57:04;100481.25;;;13.46;100.00
41830;BME280;38614;43.472;23.936;2022-07-12T02:59:52;100479.41;;;13.53;100.00
41830;BME280;38614;43.472;23.936;2022-07-12T03:02:39;100458.81;;;13.54;100.00
41830;BME280;38614;43.472;23.936;2022-07-12T03:05:27;100483.16;;;13.64;100.00
41830;BME280;38614;43.472;23.936;2022-07-12T03:08:15;100480.25;;;13.57;100.00
41830;BME280;38614;43.472;23.936;2022-07-12T03:11:03;100482.69;;;13.59;100.00
41830;BME280;38614;43.472;23.936;2022-07-12T03:13:53;100422.25;;;13.26;100.00
41830;BME280;38614;43.472;23.936;2022-07-12T03:16:41;100497.28;;;13.79;100.00
41830;BME280;38614;43.472;23.936;2022-07-12T03:19:28;100469.22;;;13.61;100.00
41830;BME280;38614;43.472;23.936;2022-07-12T03:22:16;100469.16;;;13.57;100.00
41830;BME280;38614;43.472;23.936;2022-07-12T03:25:04;100493.47;;;13.87;100.00
41830;BME280;38614;43.472;23.936;2022-07-12T03:27:52;100507.78;;;13.89;100.00
41830;BME280;38614;43.472;23.936;2022-07-12T03:30:39;100498.94;;;13.83;100.00
41830;BME280;38614;43.472;23.936;2022-07-12T03:33:30;100460.81;;;13.57;100.00
41830;BME280;38614;43.472;23.936;2022-07-12T03:36:20;100483.41;;;13.79;100.00
41830;BME280;38614;43.472;23.936;2022-07-12T03:39:07;100479.06;;;13.81;100.00
41830;BME280;38614;43.472;23.936;2022-07-12T03:41:56;100512.31;;;14.01;100.00
41830;BME280;38614;43.472;23.936;2022-07-12T03:44:44;100485.94;;;13.87;100.00
41830;BME280;38614;43.472;23.936;2022-07-12T03:47:32;100513.50;;;14.00;100.00
41830;BME280;38614;43.472;23.936;2022-07-12T03:50:22;100447.00;;;13.61;100.00
41830;BME280;38614;43.472;23.936;2022-07-12T03:53:11;100509.16;;;14.02;100.00
41830;BME280;38614;43.472;23.936;2022-07-12T03:56:01;100483.41;;;13.79;100.00
41830;BME280;38614;43.472;23.936;2022-07-12T03:58:48;100519.47;;;14.02;100.00
41830;BME280;38614;43.472;23.936;2022-07-12T04:01:36;100527.06;;;14.05;100.00
41830;BME280;38614;43.472;23.936;2022-07-12T04:04:25;100477.34;;;13.73;100.00
41830;BME280;38614;43.472;23.936;2022-07-12T04:07:13;100534.97;;;14.03;100.00
41830;BME280;38614;43.472;23.936;2022-07-12T04:10:05;100525.03;;;14.02;100.00
41830;BME280;38614;43.472;23.936;2022-07-12T04:12:58;100528.84;;;14.16;100.00
41830;BME280;38614;43.472;23.936;2022-07-12T04:15:48;100550.84;;;14.29;100.00
41830;BME280;38614;43.472;23.936;2022-07-12T04:18:38;100507.91;;;13.96;100.00
41830;BME280;38614;43.472;23.936;2022-07-12T04:21:26;100547.22;;;14.24;100.00
41830;BME280;38614;43.472;23.936;2022-07-12T04:24:14;100544.25;;;14.40;100.00
41830;BME280;38614;43.472;23.936;2022-07-12T04:27:02;100549.16;;;14.47;100.00
41830;BME280;38614;43.472;23.936;2022-07-12T04:29:49;100568.84;;;14.61;100.00
41830;BME280;38614;43.472;23.936;2022-07-12T04:32:37;100554.19;;;14.64;100.00
41830;BME280;38614;43.472;23.936;2022-07-12T04:35:25;100523.19;;;14.66;100.00
41830;BME280;38614;43.472;23.936;2022-07-12T04:38:12;100561.63;;;14.87;100.00
41830;BME280;38614;43.472;23.936;2022-07-12T04:41:03;100559.75;;;14.98;100.00
41830;BME280;38614;43.472;23.936;2022-07-12T04:43:50;100542.78;;;15.06;100.00
41830;BME280;38614;43.472;23.936;2022-07-12T04:46:40;100562.13;;;15.29;100.00
41830;BME280;38614;43.472;23.936;2022-07-12T04:49:31;100566.22;;;15.39;100.00
41830;BME280;38614;43.472;23.936;2022-07-12T04:52:23;100573.91;;;15.53;100.00
41830;BME280;38614;43.472;23.936;2022-07-12T04:55:20;100587.63;;;15.68;100.00
41830;BME280;38614;43.472;23.936;2022-07-12T04:58:11;100561.91;;;15.82;100.00
41830;BME280;38614;43.472;23.936;2022-07-12T05:00:59;100559.72;;;16.09;100.00
41830;BME280;38614;43.472;23.936;2022-07-12T05:03:47;100577.09;;;16.43;100.00
41830;BME280;38614;43.472;23.936;2022-07-12T05:06:37;100546.94;;;16.63;100.00
41830;BME280;38614;43.472;23.936;2022-07-12T05:09:29;100571.13;;;17.18;100.00
41830;BME280;38614;43.472;23.936;2022-07-12T05:12:18;100577.63;;;17.50;100.00
41830;BME280;38614;43.472;23.936;2022-07-12T05:15:06;100575.66;;;17.69;100.00
41830;BME280;38614;43.472;23.936;2022-07-12T05:17:54;100574.09;;;18.03;100.00
41830;BME280;38614;43.472;23.936;2022-07-12T05:20:42;100571.31;;;18.28;100.00
41830;BME280;38614;43.472;23.936;2022-07-12T05:23:37;100579.66;;;18.42;100.00
41830;BME280;38614;43.472;23.936;2022-07-12T05:26:25;100583.22;;;18.82;100.00
41830;BME280;38614;43.472;23.936;2022-07-12T05:29:14;100588.41;;;18.91;100.00
41830;BME280;38614;43.472;23.936;2022-07-12T05:32:01;100581.09;;;19.18;100.00
41830;BME280;38614;43.472;23.936;2022-07-12T05:34:56;100557.06;;;19.21;100.00
41830;BME280;38614;43.472;23.936;2022-07-12T05:37:44;100575.56;;;19.77;100.00
41830;BME280;38614;43.472;23.936;2022-07-12T05:40:34;100559.88;;;19.87;100.00
41830;BME280;38614;43.472;23.936;2022-07-12T05:43:23;100577.31;;;20.12;99.49
41830;BME280;38614;43.472;23.936;2022-07-12T05:46:11;100583.00;;;20.50;95.16
41830;BME280;38614;43.472;23.936;2022-07-12T05:48:58;100531.94;;;20.17;96.13
41830;BME280;38614;43.472;23.936;2022-07-12T05:51:49;100593.34;;;20.57;91.82
41830;BME280;38614;43.472;23.936;2022-07-12T05:54:59;100584.28;;;20.80;90.37
41830;BME280;38614;43.472;23.936;2022-07-12T05:57:46;100544.88;;;20.53;89.40
41830;BME280;38614;43.472;23.936;2022-07-12T06:00:34;100552.34;;;20.66;87.24
41830;BME280;38614;43.472;23.936;2022-07-12T06:03:22;100586.16;;;20.90;88.69
41830;BME280;38614;43.472;23.936;2022-07-12T06:06:09;100546.97;;;20.79;87.40
41830;BME280;38614;43.472;23.936;2022-07-12T06:08:57;100552.31;;;21.04;83.94
41830;BME280;38614;43.472;23.936;2022-07-12T06:11:45;100581.22;;;21.35;83.39
41830;BME280;38614;43.472;23.936;2022-07-12T06:14:35;100527.22;;;21.17;83.72
41830;BME280;38614;43.472;23.936;2022-07-12T06:17:24;100572.03;;;21.85;82.95
41830;BME280;38614;43.472;23.936;2022-07-12T06:20:11;100557.44;;;21.94;78.50
41830;BME280;38614;43.472;23.936;2022-07-12T06:23:30;100593.03;;;22.31;77.50
41830;BME280;38614;43.472;23.936;2022-07-12T06:26:26;100555.41;;;22.21;77.62
41830;BME280;38614;43.472;23.936;2022-07-12T06:29:14;100575.69;;;22.56;75.47
41830;BME280;38614;43.472;23.936;2022-07-12T06:32:02;100568.75;;;22.60;75.03
41830;BME280;38614;43.472;23.936;2022-07-12T06:34:50;100569.75;;;22.93;75.04
41830;BME280;38614;43.472;23.936;2022-07-12T06:37:38;100583.72;;;23.00;75.59
41830;BME280;38614;43.472;23.936;2022-07-12T06:40:25;100569.25;;;23.18;74.88
41830;BME280;38614;43.472;23.936;2022-07-12T06:43:13;100569.84;;;23.46;71.67
41830;BME280;38614;43.472;23.936;2022-07-12T06:46:01;100566.75;;;23.40;69.70
41830;BME280;38614;43.472;23.936;2022-07-12T06:48:52;100576.97;;;23.14;67.21
41830;BME280;38614;43.472;23.936;2022-07-12T06:51:40;100555.63;;;23.33;66.15
41830;BME280;38614;43.472;23.936;2022-07-12T06:54:27;100569.56;;;23.76;70.45
41830;BME280;38614;43.472;23.936;2022-07-12T06:57:17;100566.03;;;23.88;66.60
41830;BME280;38614;43.472;23.936;2022-07-12T07:00:06;100575.13;;;24.45;68.70
41830;BME280;38614;43.472;23.936;2022-07-12T07:02:54;100570.00;;;23.91;63.76
41830;BME280;38614;43.472;23.936;2022-07-12T07:05:42;100576.72;;;23.97;64.38
41830;BME280;38614;43.472;23.936;2022-07-12T07:08:29;100559.50;;;24.24;64.60
41830;BME280;38614;43.472;23.936;2022-07-12T07:11:18;100573.91;;;24.30;65.33
41830;BME280;38614;43.472;23.936;2022-07-12T07:14:13;100561.38;;;24.31;62.42
41830;BME280;38614;43.472;23.936;2022-07-12T07:17:01;100576.28;;;24.15;61.91
41830;BME280;38614;43.472;23.936;2022-07-12T07:19:49;100563.31;;;24.34;63.27
41830;BME280;38614;43.472;23.936;2022-07-12T07:22:38;100574.41;;;24.86;63.57
41830;BME280;38614;43.472;23.936;2022-07-12T07:25:25;100569.28;;;24.81;59.71
41830;BME280;38614;43.472;23.936;2022-07-12T07:28:28;100549.63;;;24.78;59.82
41830;BME280;38614;43.472;23.936;2022-07-12T07:31:37;100567.41;;;24.91;58.79
41830;BME280;38614;43.472;23.936;2022-07-12T07:34:25;100566.72;;;25.28;56.73
41830;BME280;38614;43.472;23.936;2022-07-12T07:37:19;100517.28;;;24.79;57.98
41830;BME280;38614;43.472;23.936;2022-07-12T07:40:09;100533.63;;;25.00;55.36
41830;BME280;38614;43.472;23.936;2022-07-12T07:43:00;100552.16;;;25.43;57.92
41830;BME280;38614;43.472;23.936;2022-07-12T07:45:58;100551.38;;;25.55;53.00
41830;BME280;38614;43.472;23.936;2022-07-12T07:48:46;100558.19;;;25.70;53.75
41830;BME280;38614;43.472;23.936;2022-07-12T07:51:34;100549.13;;;25.75;54.03
41830;BME280;38614;43.472;23.936;2022-07-12T07:54:25;100563.94;;;25.67;55.07
41830;BME280;38614;43.472;23.936;2022-07-12T07:57:13;100554.78;;;25.88;53.12
41830;BME280;38614;43.472;23.936;2022-07-12T08:00:03;100555.47;;;25.79;51.63
41830;BME280;38614;43.472;23.936;2022-07-12T08:02:58;100523.50;;;25.66;51.54
41830;BME280;38614;43.472;23.936;2022-07-12T08:05:47;100548.50;;;26.19;51.06
41830;BME280;38614;43.472;23.936;2022-07-12T08:08:38;100549.19;;;26.10;50.64
41830;BME280;38614;43.472;23.936;2022-07-12T08:11:48;100549.19;;;26.57;53.53
41830;BME280;38614;43.472;23.936;2022-07-12T08:14:40;100515.25;;;25.97;50.60
41830;BME280;38614;43.472;23.936;2022-07-12T08:17:31;100538.25;;;26.47;50.24
41830;BME280;38614;43.472;23.936;2022-07-12T08:20:18;100533.31;;;26.60;49.90
41830;BME280;38614;43.472;23.936;2022-07-12T08:23:26;100549.84;;;26.61;52.01
41830;BME280;38614;43.472;23.936;2022-07-12T08:26:16;100538.72;;;26.32;48.82
41830;BME280;38614;43.472;23.936;2022-07-12T08:29:04;100532.56;;;25.99;48.91
41830;BME280;38614;43.472;23.936;2022-07-12T08:31:52;100530.75;;;25.67;48.90
41830;BME280;38614;43.472;23.936;2022-07-12T08:34:42;100536.38;;;26.18;49.57
41830;BME280;38614;43.472;23.936;2022-07-12T08:37:30;100539.97;;;26.31;47.77
41830;BME280;38614;43.472;23.936;2022-07-12T08:40:21;100528.72;;;26.06;47.22
41830;BME280;38614;43.472;23.936;2022-07-12T08:43:09;100536.69;;;26.67;49.14
41830;BME280;38614;43.472;23.936;2022-07-12T08:46:03;100527.63;;;26.60;47.78
41830;BME280;38614;43.472;23.936;2022-07-12T08:48:50;100510.50;;;26.85;49.17
41830;BME280;38614;43.472;23.936;2022-07-12T08:51:41;100512.34;;;27.01;46.80
41830;BME280;38614;43.472;23.936;2022-07-12T08:54:41;100512.06;;;26.08;46.49
41830;BME280;38614;43.472;23.936;2022-07-12T08:57:29;100505.22;;;25.71;48.46
41830;BME280;38614;43.472;23.936;2022-07-12T09:00:21;100531.28;;;26.13;48.88
41830;BME280;38614;43.472;23.936;2022-07-12T09:03:14;100523.56;;;26.26;45.35
41830;BME280;38614;43.472;23.936;2022-07-12T09:06:05;100526.22;;;26.42;45.89
41830;BME280;38614;43.472;23.936;2022-07-12T09:08:53;100498.13;;;26.01;47.76
41830;BME280;38614;43.472;23.936;2022-07-12T09:11:46;100517.81;;;26.17;47.66
41830;BME280;38614;43.472;23.936;2022-07-12T09:14:37;100514.28;;;26.82;48.74
41830;BME280;38614;43.472;23.936;2022-07-12T09:17:29;100492.19;;;26.99;47.37
41830;BME280;38614;43.472;23.936;2022-07-12T09:20:20;100513.06;;;26.70;46.66
41830;BME280;38614;43.472;23.936;2022-07-12T09:23:10;100517.53;;;27.24;47.66
41830;BME280;38614;43.472;23.936;2022-07-12T09:25:58;100516.63;;;27.27;47.51
41830;BME280;38614;43.472;23.936;2022-07-12T09:28:49;100529.59;;;26.50;46.92
41830;BME280;38614;43.472;23.936;2022-07-12T09:31:50;100516.22;;;26.94;47.36
41830;BME280;38614;43.472;23.936;2022-07-12T09:35:00;100510.44;;;27.60;47.20
41830;BME280;38614;43.472;23.936;2022-07-12T09:38:09;100507.41;;;27.86;43.64
41830;BME280;38614;43.472;23.936;2022-07-12T09:40:58;100502.56;;;27.24;45.53
41830;BME280;38614;43.472;23.936;2022-07-12T09:43:50;100486.13;;;26.66;43.56
41830;BME280;38614;43.472;23.936;2022-07-12T09:46:39;100520.97;;;27.50;45.04
41830;BME280;38614;43.472;23.936;2022-07-12T09:49:27;100506.00;;;26.97;43.88
41830;BME280;38614;43.472;23.936;2022-07-12T09:52:20;100513.59;;;26.78;45.77
41830;BME280;38614;43.472;23.936;2022-07-12T09:55:09;100509.22;;;26.42;45.51
41830;BME280;38614;43.472;23.936;2022-07-12T09:58:00;100508.34;;;27.11;43.83
41830;BME280;38614;43.472;23.936;2022-07-12T10:00:53;100518.69;;;26.83;43.76
41830;BME280;38614;43.472;23.936;2022-07-12T10:03:44;100516.16;;;26.41;43.85
41830;BME280;38614;43.472;23.936;2022-07-12T10:06:33;100517.97;;;26.92;45.93
41830;BME280;38614;43.472;23.936;2022-07-12T10:09:24;100509.13;;;27.52;44.55
41830;BME280;38614;43.472;23.936;2022-07-12T10:12:16;100502.34;;;27.49;45.96
41830;BME280;38614;43.472;23.936;2022-07-12T10:15:17;100466.13;;;26.91;45.85
41830;BME280;38614;43.472;23.936;2022-07-12T10:18:05;100499.81;;;27.11;46.36
41830;BME280;38614;43.472;23.936;2022-07-12T10:20:53;100499.25;;;27.25;45.47
41830;BME280;38614;43.472;23.936;2022-07-12T10:23:41;100435.72;;;26.92;46.80
41830;BME280;38614;43.472;23.936;2022-07-12T10:26:37;100498.56;;;27.83;44.99
41830;BME280;38614;43.472;23.936;2022-07-12T10:29:29;100481.41;;;27.16;44.29
41830;BME280;38614;43.472;23.936;2022-07-12T10:32:26;100479.03;;;27.54;44.39
41830;BME280;38614;43.472;23.936;2022-07-12T10:35:19;100488.38;;;28.32;44.16
41830;BME280;38614;43.472;23.936;2022-07-12T10:38:16;100461.56;;;27.56;44.57
41830;BME280;38614;43.472;23.936;2022-07-12T10:41:21;100491.03;;;28.26;43.06
41830;BME280;38614;43.472;23.936;2022-07-12T10:44:34;100488.06;;;28.39;44.87
41830;BME280;38614;43.472;23.936;2022-07-12T10:47:22;100468.94;;;27.53;nan
41830;BME280;38614;43.472;23.936;2022-07-12T10:50:18;100492.19;;;26.99;nan
41830;BME280;38614;43.472;23.936;2022-07-12T10:56:22;100486.03;;;27.72;nan
41830;BME280;38614;43.472;23.936;2022-07-12T10:59:16;100451.41;;;26.53;nan
41830;BME280;38614;43.472;23.936;2022-07-12T11:02:04;100467.78;;;26.36;nan
41830;BME280;38614;43.472;23.936;2022-07-12T11:05:04;100473.28;;;27.27;nan
41830;BME280;38614;43.472;23.936;2022-07-12T11:07:53;100486.53;;;27.79;nan
41830;BME280;38614;43.472;23.936;2022-07-12T11:10:54;100450.13;;;28.05;nan
41830;BME280;38614;43.472;23.936;2022-07-12T11:13:42;100479.47;;;27.84;nan
41830;BME280;38614;43.472;23.936;2022-07-12T11:16:30;100434.59;;;26.89;nan
41830;BME280;38614;43.472;23.936;2022-07-12T11:19:26;100467.00;;;27.41;nan
41830;BME280;38614;43.472;23.936;2022-07-12T11:22:17;100459.16;;;28.22;nan
41830;BME280;38614;43.472;23.936;2022-07-12T11:25:12;100447.91;;;27.91;nan
41830;BME280;38614;43.472;23.936;2022-07-12T11:28:00;100490.69;;;27.97;nan
41830;BME280;38614;43.472;23.936;2022-07-12T11:30:50;100461.97;;;27.95;nan
41830;BME280;38614;43.472;23.936;2022-07-12T11:33:45;100470.28;;;27.80;nan
41830;BME280;38614;43.472;23.936;2022-07-12T11:36:37;100459.75;;;28.08;nan
41830;BME280;38614;43.472;23.936;2022-07-12T11:39:35;100475.25;;;28.53;nan
41830;BME280;38614;43.472;23.936;2022-07-12T11:42:27;100459.66;;;27.62;nan
41830;BME280;38614;43.472;23.936;2022-07-12T11:45:15;100472.56;;;27.14;nan
41830;BME280;38614;43.472;23.936;2022-07-12T11:48:06;100475.53;;;28.00;nan
41830;BME280;38614;43.472;23.936;2022-07-12T11:50:55;100459.06;;;27.18;nan
41830;BME280;38614;43.472;23.936;2022-07-12T11:53:43;100435.25;;;26.62;nan
41830;BME280;38614;43.472;23.936;2022-07-12T11:56:30;100480.00;;;27.20;nan
41830;BME280;38614;43.472;23.936;2022-07-12T11:59:25;100479.50;;;27.93;nan
41830;BME280;38614;43.472;23.936;2022-07-12T12:02:17;100484.53;;;27.49;nan
41830;BME280;38614;43.472;23.936;2022-07-12T12:05:10;100475.75;;;27.25;nan
41830;BME280;38614;43.472;23.936;2022-07-12T12:08:01;100477.94;;;27.61;nan
41830;BME280;38614;43.472;23.936;2022-07-12T12:10:59;100460.72;;;28.14;nan
41830;BME280;38614;43.472;23.936;2022-07-12T12:13:55;100433.88;;;28.15;nan
41830;BME280;38614;43.472;23.936;2022-07-12T12:16:45;100451.13;;;28.39;nan
41830;BME280;38614;43.472;23.936;2022-07-12T12:19:41;100447.31;;;28.24;nan
41830;BME280;38614;43.472;23.936;2022-07-12T12:22:32;100469.38;;;28.20;nan
41830;BME280;38614;43.472;23.936;2022-07-12T12:25:22;100453.50;;;28.31;nan
41830;BME280;38614;43.472;23.936;2022-07-12T12:28:10;100464.03;;;28.13;nan
41830;BME280;38614;43.472;23.936;2022-07-12T12:31:01;100390.50;;;28.05;nan
41830;BME280;38614;43.472;23.936;2022-07-12T12:33:55;100455.94;;;28.93;nan
41830;BME280;38614;43.472;23.936;2022-07-12T12:37:00;100448.59;;;28.50;nan
41830;BME280;38614;43.472;23.936;2022-07-12T12:40:01;100427.44;;;27.38;nan
41830;BME280;38614;43.472;23.936;2022-07-12T12:42:52;100441.16;;;26.77;nan
41830;BME280;38614;43.472;23.936;2022-07-12T12:45:52;100440.56;;;27.13;nan
41830;BME280;38614;43.472;23.936;2022-07-12T12:48:48;100431.50;;;27.86;nan
41830;BME280;38614;43.472;23.936;2022-07-12T12:52:15;100425.53;;;28.39;nan
41830;BME280;38614;43.472;23.936;2022-07-12T12:55:13;100436.72;;;28.15;nan
41830;BME280;38614;43.472;23.936;2022-07-12T12:58:00;100424.59;;;28.33;nan
41830;BME280;38614;43.472;23.936;2022-07-12T13:00:50;100440.38;;;28.34;nan
41830;BME280;38614;43.472;23.936;2022-07-12T13:03:41;100441.31;;;28.03;nan
41830;BME280;38614;43.472;23.936;2022-07-12T13:06:29;100415.75;;;27.36;nan
41830;BME280;38614;43.472;23.936;2022-07-12T13:09:16;100430.56;;;27.31;nan
41830;BME280;38614;43.472;23.936;2022-07-12T13:12:08;100443.59;;;27.19;nan
41830;BME280;38614;43.472;23.936;2022-07-12T13:14:56;100430.94;;;27.60;nan
41830;BME280;38614;43.472;23.936;2022-07-12T13:17:44;100437.19;;;28.04;nan
41830;BME280;38614;43.472;23.936;2022-07-12T13:20:32;100433.41;;;27.98;nan
41830;BME280;38614;43.472;23.936;2022-07-12T13:23:22;100420.78;;;28.27;nan
41830;BME280;38614;43.472;23.936;2022-07-12T13:26:13;100430.25;;;28.24;nan
41830;BME280;38614;43.472;23.936;2022-07-12T13:29:00;100440.22;;;27.42;nan
41830;BME280;38614;43.472;23.936;2022-07-12T13:31:48;100434.38;;;27.06;nan
41830;BME280;38614;43.472;23.936;2022-07-12T13:34:42;100401.72;;;27.32;nan
41830;BME280;38614;43.472;23.936;2022-07-12T13:37:33;100429.88;;;27.17;nan
41830;BME280;38614;43.472;23.936;2022-07-12T13:40:24;100429.13;;;26.95;nan
41830;BME280;38614;43.472;23.936;2022-07-12T13:43:12;100428.38;;;26.51;nan
41830;BME280;38614;43.472;23.936;2022-07-12T13:46:02;100340.78;;;25.78;nan
41830;BME280;38614;43.472;23.936;2022-07-12T13:48:50;100427.75;;;26.47;nan
41830;BME280;38614;43.472;23.936;2022-07-12T13:51:38;100426.66;;;27.37;nan
41830;BME280;38614;43.472;23.936;2022-07-12T13:54:25;100424.22;;;27.67;nan
41830;BME280;38614;43.472;23.936;2022-07-12T13:57:13;100411.66;;;27.27;nan
41830;BME280;38614;43.472;23.936;2022-07-12T14:00:08;100424.41;;;26.70;nan
41830;BME280;38614;43.472;23.936;2022-07-12T14:02:58;100423.03;;;27.06;nan
41830;BME280;38614;43.472;23.936;2022-07-12T14:05:46;100404.38;;;27.36;nan
41830;BME280;38614;43.472;23.936;2022-07-12T14:08:37;100420.13;;;27.68;nan
41830;BME280;38614;43.472;23.936;2022-07-12T14:11:24;100403.13;;;26.96;nan
41830;BME280;38614;43.472;23.936;2022-07-12T14:14:14;100415.91;;;26.70;nan
41830;BME280;38614;43.472;23.936;2022-07-12T14:17:04;100414.81;;;26.46;nan
41830;BME280;38614;43.472;23.936;2022-07-12T14:19:52;100418.34;;;26.81;nan
41830;BME280;38614;43.472;23.936;2022-07-12T14:22:40;100419.19;;;27.21;nan
41830;BME280;38614;43.472;23.936;2022-07-12T14:25:34;100403.03;;;27.59;nan
41830;BME280;38614;43.472;23.936;2022-07-12T14:28:23;100412.94;;;27.54;nan
41830;BME280;38614;43.472;23.936;2022-07-12T14:31:15;100415.44;;;27.34;nan
41830;BME280;38614;43.472;23.936;2022-07-12T14:34:03;100423.13;;;26.93;nan
41830;BME280;38614;43.472;23.936;2022-07-12T14:36:58;100421.53;;;27.23;nan
41830;BME280;38614;43.472;23.936;2022-07-12T14:39:55;100389.56;;;26.91;nan
41830;BME280;38614;43.472;23.936;2022-07-12T14:42:46;100412.78;;;26.77;nan
41830;BME280;38614;43.472;23.936;2022-07-12T14:46:00;100415.31;;;26.31;nan